createdAt,value
2017-12-04T00:00:42.999Z,0
2017-12-04T00:01:43.260Z,0
2017-12-04T00:02:43.015Z,0
2017-12-04T00:03:43.029Z,0
2017-12-04T00:04:43.038Z,0
2017-12-04T00:05:43.302Z,0
2017-12-04T00:06:42.813Z,0
2017-12-04T00:07:43.380Z,0
2017-12-04T00:08:43.345Z,0
2017-12-04T00:09:43.141Z,0
2017-12-04T00:10:43.367Z,0
2017-12-04T00:11:42.864Z,0
2017-12-04T00:12:42.884Z,0
2017-12-04T00:13:43.142Z,0
2017-12-04T00:14:43.150Z,0
2017-12-04T00:15:43.417Z,0
2017-12-04T00:16:43.427Z,0
2017-12-04T00:17:43.181Z,0
2017-12-04T00:18:43.468Z,0
2017-12-04T00:19:43.455Z,0
2017-12-04T00:20:43.479Z,0
2017-12-04T00:21:42.973Z,0
2017-12-04T00:22:43.537Z,0
2017-12-04T00:23:43.003Z,0
2017-12-04T00:24:43.259Z,0
2017-12-04T00:25:43.017Z,0
2017-12-04T00:26:43.284Z,0
2017-12-04T00:27:43.293Z,0
2017-12-04T00:28:43.555Z,0
2017-12-04T00:29:43.319Z,0
2017-12-04T00:30:43.326Z,0
2017-12-04T00:31:43.335Z,0
2017-12-04T00:32:43.374Z,0
2017-12-04T00:33:43.105Z,0
2017-12-04T00:34:43.145Z,0
2017-12-04T00:35:43.395Z,0
2017-12-04T00:36:43.393Z,0
2017-12-04T00:37:43.455Z,0
2017-12-04T00:38:43.525Z,0
2017-12-04T00:39:42.921Z,0
2017-12-04T00:40:43.688Z,0
2017-12-04T00:41:43.456Z,0
2017-12-04T00:42:43.261Z,0
2017-12-04T00:43:43.476Z,0
2017-12-04T00:44:43.737Z,0
2017-12-04T00:45:43.266Z,0
2017-12-04T00:46:43.511Z,0
2017-12-04T00:47:43.269Z,0
2017-12-04T00:48:43.786Z,0
2017-12-04T00:49:43.784Z,0
2017-12-04T00:50:43.293Z,0
2017-12-04T00:51:43.831Z,0
2017-12-04T00:52:43.570Z,0
2017-12-04T00:53:43.325Z,0
2017-12-04T00:54:43.894Z,0
2017-12-04T00:55:43.362Z,0
2017-12-04T00:56:42.856Z,0
2017-12-04T00:57:43.886Z,0
2017-12-04T00:58:43.894Z,0
2017-12-04T00:59:43.901Z,0
2017-12-04T01:00:43.914Z,0
2017-12-04T01:01:43.929Z,0
2017-12-04T01:02:43.937Z,0
2017-12-04T01:03:43.704Z,0
2017-12-04T01:04:43.701Z,0
2017-12-04T01:05:43.724Z,0
2017-12-04T01:06:43.474Z,0
2017-12-04T01:07:43.751Z,0
2017-12-04T01:08:44.061Z,0
2017-12-04T01:09:44.008Z,0
2017-12-04T01:10:43.514Z,0
2017-12-04T01:11:43.978Z,0
2017-12-04T01:12:43.792Z,0
2017-12-04T01:13:43.553Z,0
2017-12-04T01:14:44.069Z,0
2017-12-04T01:15:44.077Z,0
2017-12-04T01:16:43.840Z,0
2017-12-04T01:17:44.110Z,0
2017-12-04T01:18:44.119Z,0
2017-12-04T01:19:43.894Z,0
2017-12-04T01:20:44.135Z,0
2017-12-04T01:21:44.144Z,0
2017-12-04T01:22:43.658Z,0
2017-12-04T01:23:44.175Z,0
2017-12-04T01:24:44.205Z,0
2017-12-04T01:25:43.685Z,0
2017-12-04T01:26:44.222Z,0
2017-12-04T01:27:43.454Z,0
2017-12-04T01:28:44.230Z,0
2017-12-04T01:29:44.235Z,0
2017-12-04T01:30:44.042Z,0
2017-12-04T01:31:44.271Z,0
2017-12-04T01:32:44.018Z,0
2017-12-04T01:33:44.028Z,0
2017-12-04T01:34:44.040Z,0
2017-12-04T01:35:44.060Z,0
2017-12-04T01:36:43.808Z,0
2017-12-04T01:37:43.836Z,0
2017-12-04T01:38:44.087Z,0
2017-12-04T01:39:44.095Z,0
2017-12-04T01:40:44.367Z,0
2017-12-04T01:41:44.116Z,0
2017-12-04T01:42:44.128Z,0
2017-12-04T01:43:44.144Z,0
2017-12-04T01:44:44.606Z,0
2017-12-04T01:45:44.163Z,0
2017-12-04T01:46:43.918Z,0
2017-12-04T01:47:44.183Z,0
2017-12-04T01:48:44.194Z,0
2017-12-04T01:49:44.255Z,0
2017-12-04T01:50:43.959Z,0
2017-12-04T01:51:44.229Z,0
2017-12-04T01:52:44.498Z,0
2017-12-04T01:53:43.999Z,0
2017-12-04T01:54:44.261Z,0
2017-12-04T01:55:44.277Z,0
2017-12-04T01:56:44.031Z,0
2017-12-04T01:57:44.294Z,0
2017-12-04T01:58:44.051Z,0
2017-12-04T01:59:44.316Z,0
2017-12-04T02:00:44.346Z,0
2017-12-04T02:01:44.089Z,0
2017-12-04T02:02:44.350Z,0
2017-12-04T02:03:44.359Z,0
2017-12-04T02:04:44.517Z,0
2017-12-04T02:05:44.455Z,0
2017-12-04T02:06:44.412Z,0
2017-12-04T02:07:44.661Z,0
2017-12-04T02:08:43.914Z,0
2017-12-04T02:09:44.685Z,0
2017-12-04T02:10:44.213Z,0
2017-12-04T02:11:44.457Z,0
2017-12-04T02:12:44.460Z,0
2017-12-04T02:13:44.480Z,0
2017-12-04T02:14:44.734Z,0
2017-12-04T02:15:44.754Z,0
2017-12-04T02:16:44.252Z,0
2017-12-04T02:17:44.280Z,0
2017-12-04T02:18:44.530Z,0
2017-12-04T02:19:44.286Z,0
2017-12-04T02:20:44.388Z,0
2017-12-04T02:21:44.817Z,0
2017-12-04T02:22:44.834Z,0
2017-12-04T02:23:44.846Z,0
2017-12-04T02:24:44.850Z,0
2017-12-04T02:25:44.864Z,0
2017-12-04T02:26:44.875Z,0
2017-12-04T02:27:44.371Z,0
2017-12-04T02:28:44.639Z,0
2017-12-04T02:29:44.899Z,0
2017-12-04T02:30:44.664Z,0
2017-12-04T02:31:44.680Z,0
2017-12-04T02:32:44.945Z,0
2017-12-04T02:33:44.719Z,0
2017-12-04T02:34:44.707Z,0
2017-12-04T02:35:44.475Z,0
2017-12-04T02:36:45.000Z,0
2017-12-04T02:37:44.799Z,0
2017-12-04T02:38:44.510Z,0
2017-12-04T02:39:44.772Z,0
2017-12-04T02:40:44.784Z,0
2017-12-04T02:41:45.075Z,0
2017-12-04T02:42:45.105Z,0
2017-12-04T02:43:44.811Z,0
2017-12-04T02:44:45.088Z,0
2017-12-04T02:45:45.083Z,0
2017-12-04T02:46:45.096Z,0
2017-12-04T02:47:44.922Z,0
2017-12-04T02:48:44.658Z,0
2017-12-04T02:49:44.623Z,0
2017-12-04T02:50:44.897Z,0
2017-12-04T02:51:44.651Z,0
2017-12-04T02:52:45.216Z,0
2017-12-04T02:53:44.959Z,0
2017-12-04T02:54:44.946Z,0
2017-12-04T02:55:45.322Z,0
2017-12-04T02:56:45.235Z,0
2017-12-04T02:57:44.977Z,0
2017-12-04T02:58:44.976Z,0
2017-12-04T02:59:45.242Z,0
2017-12-04T03:00:44.745Z,0
2017-12-04T03:01:45.009Z,0
2017-12-04T03:02:45.020Z,0
2017-12-04T03:03:45.290Z,0
2017-12-04T03:04:45.299Z,0
2017-12-04T03:05:44.812Z,0
2017-12-04T03:06:45.336Z,0
2017-12-04T03:07:45.085Z,0
2017-12-04T03:08:45.342Z,0
2017-12-04T03:09:44.596Z,0
2017-12-04T03:10:44.659Z,0
2017-12-04T03:11:45.375Z,0
2017-12-04T03:12:45.388Z,0
2017-12-04T03:13:45.399Z,0
2017-12-04T03:14:44.906Z,0
2017-12-04T03:15:45.424Z,0
2017-12-04T03:16:45.442Z,0
2017-12-04T03:17:45.195Z,0
2017-12-04T03:18:45.206Z,0
2017-12-04T03:19:45.465Z,0
2017-12-04T03:20:44.974Z,0
2017-12-04T03:21:45.495Z,0
2017-12-04T03:22:45.500Z,0
2017-12-04T03:23:45.005Z,0
2017-12-04T03:24:45.525Z,0
2017-12-04T03:25:45.037Z,0
2017-12-04T03:26:45.043Z,0
2017-12-04T03:27:45.304Z,0
2017-12-04T03:28:45.369Z,0
2017-12-04T03:29:45.597Z,0
2017-12-04T03:30:45.615Z,0
2017-12-04T03:31:45.376Z,0
2017-12-04T03:32:45.608Z,0
2017-12-04T03:33:45.375Z,0
2017-12-04T03:34:45.132Z,0
2017-12-04T03:35:45.649Z,0
2017-12-04T03:36:45.415Z,0
2017-12-04T03:37:45.674Z,0
2017-12-04T03:38:45.491Z,0
2017-12-04T03:39:44.937Z,0
2017-12-04T03:40:45.447Z,0
2017-12-04T03:41:45.732Z,0
2017-12-04T03:42:45.231Z,0
2017-12-04T03:43:45.741Z,0
2017-12-04T03:44:44.992Z,0
2017-12-04T03:45:45.006Z,0
2017-12-04T03:46:45.059Z,0
2017-12-04T03:47:45.535Z,0
2017-12-04T03:48:45.534Z,0
2017-12-04T03:49:45.797Z,0
2017-12-04T03:50:45.823Z,0
2017-12-04T03:51:45.064Z,0
2017-12-04T03:52:45.855Z,0
2017-12-04T03:53:45.587Z,0
2017-12-04T03:54:45.856Z,0
2017-12-04T03:55:45.608Z,0
2017-12-04T03:56:45.618Z,0
2017-12-04T03:57:45.385Z,0
2017-12-04T03:58:45.641Z,0
2017-12-04T03:59:45.405Z,0
2017-12-04T04:00:45.424Z,0
2017-12-04T04:01:45.677Z,0
2017-12-04T04:02:45.941Z,0
2017-12-04T04:03:45.450Z,0
2017-12-04T04:04:45.961Z,0
2017-12-04T04:05:45.738Z,0
2017-12-04T04:06:46.020Z,0
2017-12-04T04:07:45.495Z,0
2017-12-04T04:08:46.011Z,0
2017-12-04T04:09:46.048Z,0
2017-12-04T04:10:46.035Z,0
2017-12-04T04:11:46.045Z,0
2017-12-04T04:12:45.555Z,0
2017-12-04T04:13:45.556Z,0
2017-12-04T04:14:46.079Z,0
2017-12-04T04:15:45.578Z,0
2017-12-04T04:16:46.115Z,0
2017-12-04T04:17:45.604Z,0
2017-12-04T04:18:45.622Z,0
2017-12-04T04:19:47.133Z,0
2017-12-04T04:20:45.634Z,0
2017-12-04T04:21:45.649Z,0
2017-12-04T04:22:45.662Z,0
2017-12-04T04:23:46.187Z,0
2017-12-04T04:24:45.939Z,0
2017-12-04T04:25:46.189Z,0
2017-12-04T04:26:45.953Z,0
2017-12-04T04:27:46.217Z,0
2017-12-04T04:28:45.973Z,0
2017-12-04T04:29:45.730Z,0
2017-12-04T04:30:45.999Z,0
2017-12-04T04:31:46.261Z,0
2017-12-04T04:32:46.019Z,0
2017-12-04T04:33:45.780Z,0
2017-12-04T04:34:46.060Z,0
2017-12-04T04:35:46.060Z,0
2017-12-04T04:36:46.073Z,0
2017-12-04T04:37:46.325Z,0
2017-12-04T04:38:46.243Z,0
2017-12-04T04:39:46.357Z,0
2017-12-04T04:40:45.895Z,0
2017-12-04T04:41:46.422Z,0
2017-12-04T04:42:46.390Z,0
2017-12-04T04:43:46.151Z,0
2017-12-04T04:44:45.903Z,0
2017-12-04T04:45:46.165Z,0
2017-12-04T04:46:45.932Z,0
2017-12-04T04:47:46.454Z,0
2017-12-04T04:48:46.202Z,0
2017-12-04T04:49:46.206Z,0
2017-12-04T04:50:46.247Z,0
2017-12-04T04:51:46.487Z,0
2017-12-04T04:52:46.530Z,0
2017-12-04T04:53:46.266Z,0
2017-12-04T04:54:46.263Z,0
2017-12-04T04:55:46.534Z,0
2017-12-04T04:56:45.781Z,0
2017-12-04T04:57:46.112Z,0
2017-12-04T04:58:46.562Z,0
2017-12-04T04:59:46.587Z,0
2017-12-04T05:00:45.832Z,0
2017-12-04T05:01:46.618Z,0
2017-12-04T05:02:46.609Z,0
2017-12-04T05:03:46.083Z,0
2017-12-04T05:04:46.380Z,0
2017-12-04T05:05:46.133Z,0
2017-12-04T05:06:46.148Z,0
2017-12-04T05:07:46.672Z,0
2017-12-04T05:08:46.684Z,0
2017-12-04T05:09:46.432Z,0
2017-12-04T05:10:46.448Z,0
2017-12-04T05:11:46.205Z,0
2017-12-04T05:12:46.513Z,0
2017-12-04T05:13:46.228Z,0
2017-12-04T05:14:46.487Z,0
2017-12-04T05:15:46.764Z,0
2017-12-04T05:16:46.309Z,0
2017-12-04T05:17:46.779Z,0
2017-12-04T05:18:46.534Z,0
2017-12-04T05:19:46.801Z,0
2017-12-04T05:20:46.819Z,0
2017-12-04T05:21:46.818Z,0
2017-12-04T05:22:46.334Z,0
2017-12-04T05:23:46.841Z,0
2017-12-04T05:24:46.604Z,0
2017-12-04T05:25:46.666Z,0
2017-12-04T05:26:46.373Z,0
2017-12-04T05:27:46.127Z,0
2017-12-04T05:28:46.645Z,0
2017-12-04T05:29:46.655Z,0
2017-12-04T05:30:46.437Z,0
2017-12-04T05:31:46.983Z,0
2017-12-04T05:32:46.940Z,0
2017-12-04T05:33:46.705Z,0
2017-12-04T05:34:46.976Z,0
2017-12-04T05:35:46.471Z,0
2017-12-04T05:36:46.736Z,0
2017-12-04T05:37:47.008Z,0
2017-12-04T05:38:46.765Z,0
2017-12-04T05:39:46.522Z,0
2017-12-04T05:40:46.280Z,0
2017-12-04T05:41:46.835Z,0
2017-12-04T05:42:46.808Z,0
2017-12-04T05:43:46.811Z,0
2017-12-04T05:44:47.079Z,0
2017-12-04T05:45:47.095Z,0
2017-12-04T05:46:47.101Z,0
2017-12-04T05:47:46.611Z,0
2017-12-04T05:48:46.621Z,0
2017-12-04T05:49:47.133Z,0
2017-12-04T05:50:47.203Z,0
2017-12-04T05:51:46.915Z,0
2017-12-04T05:52:46.912Z,0
2017-12-04T05:53:46.679Z,0
2017-12-04T05:54:46.938Z,0
2017-12-04T05:55:46.543Z,0
2017-12-04T05:56:46.962Z,0
2017-12-04T05:57:46.972Z,0
2017-12-04T05:58:46.734Z,0
2017-12-04T05:59:47.256Z,0
2017-12-04T06:00:47.008Z,0
2017-12-04T06:01:46.516Z,0
2017-12-04T06:02:47.287Z,0
2017-12-04T06:03:47.047Z,0
2017-12-04T06:04:47.068Z,0
2017-12-04T06:05:47.116Z,0
2017-12-04T06:06:47.071Z,0
2017-12-04T06:07:47.092Z,0
2017-12-04T06:08:46.846Z,0
2017-12-04T06:09:47.124Z,0
2017-12-04T06:10:47.123Z,0
2017-12-04T06:11:46.886Z,0
2017-12-04T06:12:46.890Z,0
2017-12-04T06:13:46.653Z,0
2017-12-04T06:14:47.422Z,0
2017-12-04T06:15:47.427Z,0
2017-12-04T06:16:47.447Z,0
2017-12-04T06:17:47.199Z,0
2017-12-04T06:18:47.210Z,0
2017-12-04T06:19:47.222Z,0
2017-12-04T06:20:47.281Z,0
2017-12-04T06:21:47.014Z,0
2017-12-04T06:22:47.014Z,0
2017-12-04T06:23:46.767Z,0
2017-12-04T06:24:47.031Z,0
2017-12-04T06:25:47.292Z,0
2017-12-04T06:26:47.317Z,0
2017-12-04T06:27:47.060Z,0
2017-12-04T06:28:47.344Z,0
2017-12-04T06:29:47.589Z,0
2017-12-04T06:30:47.346Z,0
2017-12-04T06:31:47.360Z,0
2017-12-04T06:32:47.626Z,0
2017-12-04T06:33:47.389Z,0
2017-12-04T06:34:47.394Z,0
2017-12-04T06:35:47.211Z,0
2017-12-04T06:36:47.673Z,0
2017-12-04T06:37:47.678Z,0
2017-12-04T06:38:47.199Z,0
2017-12-04T06:39:47.703Z,0
2017-12-04T06:40:47.471Z,0
2017-12-04T06:41:46.964Z,0
2017-12-04T06:42:47.481Z,0
2017-12-04T06:43:47.745Z,0
2017-12-04T06:44:47.252Z,0
2017-12-04T06:45:47.514Z,0
2017-12-04T06:46:47.528Z,0
2017-12-04T06:47:47.539Z,0
2017-12-04T06:48:47.323Z,0
2017-12-04T06:49:47.844Z,0
2017-12-04T06:50:47.833Z,0
2017-12-04T06:51:47.889Z,5
2017-12-04T06:52:47.850Z,5
2017-12-04T06:53:47.867Z,5
2017-12-04T06:54:47.884Z,5
2017-12-04T06:55:47.882Z,5
2017-12-04T06:56:47.390Z,5
2017-12-04T06:57:47.151Z,5
2017-12-04T06:58:47.664Z,5
2017-12-04T06:59:47.171Z,5
2017-12-04T07:00:47.685Z,5
2017-12-04T07:01:47.702Z,5
2017-12-04T07:02:47.717Z,10
2017-12-04T07:03:47.723Z,10
2017-12-04T07:04:47.986Z,10
2017-12-04T07:05:47.750Z,10
2017-12-04T07:06:48.022Z,10
2017-12-04T07:07:47.561Z,10
2017-12-04T07:08:47.577Z,10
2017-12-04T07:09:47.795Z,10
2017-12-04T07:10:47.800Z,15
2017-12-04T07:11:47.816Z,15
2017-12-04T07:12:47.824Z,15
2017-12-04T07:13:47.586Z,20
2017-12-04T07:14:47.596Z,20
2017-12-04T07:15:47.607Z,15
2017-12-04T07:16:47.614Z,15
2017-12-04T07:17:47.884Z,15
2017-12-04T07:18:47.896Z,15
2017-12-04T07:19:47.903Z,15
2017-12-04T07:20:47.915Z,15
2017-12-04T07:21:47.674Z,15
2017-12-04T07:22:48.190Z,15
2017-12-04T07:23:47.489Z,15
2017-12-04T07:24:47.966Z,15
2017-12-04T07:25:48.230Z,20
2017-12-04T07:26:48.234Z,20
2017-12-04T07:27:47.998Z,20
2017-12-04T07:28:47.499Z,25
2017-12-04T07:29:48.021Z,25
2017-12-04T07:30:48.284Z,25
2017-12-04T07:31:47.796Z,25
2017-12-04T07:32:48.307Z,25
2017-12-04T07:33:48.315Z,25
2017-12-04T07:34:48.079Z,25
2017-12-04T07:35:48.338Z,25
2017-12-04T07:36:47.847Z,25
2017-12-04T07:37:48.119Z,25
2017-12-04T07:38:48.193Z,30
2017-12-04T07:39:47.650Z,30
2017-12-04T07:40:48.202Z,30
2017-12-04T07:41:47.398Z,35
2017-12-04T07:42:48.167Z,35
2017-12-04T07:43:48.181Z,40
2017-12-04T07:44:47.941Z,40
2017-12-04T07:45:48.254Z,40
2017-12-04T07:46:48.219Z,45
2017-12-04T07:47:47.980Z,45
2017-12-04T07:48:48.239Z,45
2017-12-04T07:49:47.748Z,45
2017-12-04T07:50:48.275Z,45
2017-12-04T07:51:48.527Z,40
2017-12-04T07:52:47.781Z,40
2017-12-04T07:53:48.300Z,40
2017-12-04T07:54:48.057Z,40
2017-12-04T07:55:48.128Z,35
2017-12-04T07:56:48.332Z,35
2017-12-04T07:57:48.094Z,30
2017-12-04T07:58:47.855Z,35
2017-12-04T07:59:48.419Z,35
2017-12-04T08:00:48.693Z,40
2017-12-04T08:01:48.643Z,45
2017-12-04T08:02:48.655Z,55
2017-12-04T08:03:48.166Z,60
2017-12-04T08:04:48.432Z,70
2017-12-04T08:05:47.959Z,80
2017-12-04T08:06:48.463Z,85
2017-12-04T08:07:48.239Z,90
2017-12-04T08:08:48.486Z,100
2017-12-04T08:09:48.750Z,100
2017-12-04T08:10:48.556Z,100
2017-12-04T08:11:48.771Z,95
2017-12-04T08:12:48.526Z,95
2017-12-04T08:13:48.294Z,95
2017-12-04T08:14:48.298Z,95
2017-12-04T08:15:48.559Z,90
2017-12-04T08:16:48.572Z,90
2017-12-04T08:17:48.589Z,90
2017-12-04T08:18:48.594Z,90
2017-12-04T08:19:48.610Z,95
2017-12-04T08:20:48.366Z,100
2017-12-04T08:21:48.884Z,105
2017-12-04T08:22:48.392Z,110
2017-12-04T08:23:48.911Z,115
2017-12-04T08:24:48.921Z,115
2017-12-04T08:25:48.227Z,115
2017-12-04T08:26:48.943Z,115
2017-12-04T08:27:48.447Z,120
2017-12-04T08:28:48.963Z,120
2017-12-04T08:29:48.737Z,115
2017-12-04T08:30:48.742Z,115
2017-12-04T08:31:48.756Z,110
2017-12-04T08:32:48.007Z,110
2017-12-04T08:33:48.274Z,105
2017-12-04T08:34:48.842Z,110
2017-12-04T08:35:49.054Z,115
2017-12-04T08:36:49.066Z,115
2017-12-04T08:37:49.074Z,120
2017-12-04T08:38:48.342Z,120
2017-12-04T08:39:49.114Z,120
2017-12-04T08:40:48.921Z,115
2017-12-04T08:41:49.141Z,110
2017-12-04T08:42:48.880Z,115
2017-12-04T08:43:48.910Z,110
2017-12-04T08:44:48.916Z,110
2017-12-04T08:45:49.172Z,115
2017-12-04T08:46:48.678Z,120
2017-12-04T08:47:49.192Z,125
2017-12-04T08:48:48.958Z,135
2017-12-04T08:49:48.978Z,135
2017-12-04T08:50:48.982Z,140
2017-12-04T08:51:48.994Z,140
2017-12-04T08:52:49.268Z,150
2017-12-04T08:53:49.275Z,150
2017-12-04T08:54:49.031Z,155
2017-12-04T08:55:49.300Z,155
2017-12-04T08:56:49.365Z,160
2017-12-04T08:57:49.138Z,160
2017-12-04T08:58:49.095Z,155
2017-12-04T08:59:49.345Z,160
2017-12-04T09:00:49.106Z,160
2017-12-04T09:01:48.877Z,160
2017-12-04T09:02:48.645Z,160
2017-12-04T09:03:49.146Z,160
2017-12-04T09:04:48.643Z,165
2017-12-04T09:05:49.170Z,160
2017-12-04T09:06:49.178Z,155
2017-12-04T09:07:49.459Z,150
2017-12-04T09:08:49.450Z,150
2017-12-04T09:09:49.467Z,155
2017-12-04T09:10:49.480Z,160
2017-12-04T09:11:49.535Z,160
2017-12-04T09:12:49.253Z,160
2017-12-04T09:13:49.008Z,165
2017-12-04T09:14:49.539Z,155
2017-12-04T09:15:49.570Z,160
2017-12-04T09:16:49.358Z,160
2017-12-04T09:17:49.571Z,160
2017-12-04T09:18:48.568Z,160
2017-12-04T09:19:49.085Z,155
2017-12-04T09:20:49.111Z,140
2017-12-04T09:21:49.631Z,135
2017-12-04T09:22:49.389Z,130
2017-12-04T09:23:49.386Z,125
2017-12-04T09:24:49.452Z,125
2017-12-04T09:25:49.662Z,125
2017-12-04T09:26:49.499Z,130
2017-12-04T09:27:49.466Z,135
2017-12-04T09:28:49.755Z,140
2017-12-04T09:29:49.217Z,140
2017-12-04T09:30:49.471Z,140
2017-12-04T09:31:49.508Z,140
2017-12-04T09:32:49.753Z,135
2017-12-04T09:33:49.524Z,130
2017-12-04T09:34:49.780Z,125
2017-12-04T09:35:49.533Z,125
2017-12-04T09:36:49.826Z,120
2017-12-04T09:37:49.564Z,120
2017-12-04T09:38:49.574Z,115
2017-12-04T09:39:49.581Z,115
2017-12-04T09:40:49.615Z,120
2017-12-04T09:41:49.667Z,120
2017-12-04T09:42:49.628Z,120
2017-12-04T09:43:49.893Z,115
2017-12-04T09:44:49.400Z,110
2017-12-04T09:45:49.528Z,110
2017-12-04T09:46:49.922Z,110
2017-12-04T09:47:49.687Z,105
2017-12-04T09:48:50.012Z,110
2017-12-04T09:49:49.455Z,115
2017-12-04T09:50:49.469Z,110
2017-12-04T09:51:49.987Z,110
2017-12-04T09:52:49.751Z,110
2017-12-04T09:53:50.013Z,110
2017-12-04T09:54:49.769Z,110
2017-12-04T09:55:49.788Z,110
2017-12-04T09:56:50.097Z,105
2017-12-04T09:57:49.568Z,105
2017-12-04T09:58:49.819Z,115
2017-12-04T09:59:49.581Z,120
2017-12-04T10:00:49.721Z,115
2017-12-04T10:01:50.111Z,105
2017-12-04T10:02:49.618Z,95
2017-12-04T10:03:49.887Z,95
2017-12-04T10:04:49.639Z,90
2017-12-04T10:05:49.902Z,90
2017-12-04T10:06:49.920Z,85
2017-12-04T10:07:49.930Z,90
2017-12-04T10:08:49.942Z,100
2017-12-04T10:09:50.154Z,100
2017-12-04T10:10:50.021Z,100
2017-12-04T10:11:50.030Z,105
2017-12-04T10:12:49.738Z,100
2017-12-04T10:13:50.256Z,100
2017-12-04T10:14:50.276Z,100
2017-12-04T10:15:50.282Z,95
2017-12-04T10:16:50.039Z,95
2017-12-04T10:17:49.800Z,100
2017-12-04T10:18:50.367Z,95
2017-12-04T10:19:49.569Z,90
2017-12-04T10:20:50.338Z,90
2017-12-04T10:21:50.105Z,85
2017-12-04T10:22:50.377Z,90
2017-12-04T10:23:50.143Z,100
2017-12-04T10:24:50.141Z,105
2017-12-04T10:25:49.901Z,120
2017-12-04T10:26:49.908Z,125
2017-12-04T10:27:50.183Z,130
2017-12-04T10:28:50.183Z,125
2017-12-04T10:29:49.995Z,120
2017-12-04T10:30:50.212Z,120
2017-12-04T10:31:50.333Z,125
2017-12-04T10:32:50.290Z,120
2017-12-04T10:33:50.246Z,120
2017-12-04T10:34:50.265Z,115
2017-12-04T10:35:50.526Z,110
2017-12-04T10:36:50.536Z,105
2017-12-04T10:37:50.547Z,105
2017-12-04T10:38:50.076Z,105
2017-12-04T10:39:49.562Z,110
2017-12-04T10:40:50.330Z,110
2017-12-04T10:41:50.098Z,115
2017-12-04T10:42:50.603Z,120
2017-12-04T10:43:50.616Z,130
2017-12-04T10:44:50.189Z,135
2017-12-04T10:45:50.655Z,145
2017-12-04T10:46:50.656Z,145
2017-12-04T10:47:49.911Z,150
2017-12-04T10:48:50.740Z,155
2017-12-04T10:49:50.436Z,150
2017-12-04T10:50:50.198Z,145
2017-12-04T10:51:50.217Z,145
2017-12-04T10:52:50.760Z,145
2017-12-04T10:53:50.497Z,140
2017-12-04T10:54:50.260Z,140
2017-12-04T10:55:50.770Z,140
2017-12-04T10:56:50.775Z,135
2017-12-04T10:57:50.789Z,125
2017-12-04T10:58:50.552Z,115
2017-12-04T10:59:50.963Z,115
2017-12-04T11:00:50.627Z,115
2017-12-04T11:01:50.839Z,125
2017-12-04T11:02:50.633Z,135
2017-12-04T11:03:50.615Z,135
2017-12-04T11:04:50.876Z,130
2017-12-04T11:05:50.643Z,130
2017-12-04T11:06:50.660Z,125
2017-12-04T11:07:50.667Z,125
2017-12-04T11:08:50.427Z,125
2017-12-04T11:09:50.190Z,120
2017-12-04T11:10:50.702Z,130
2017-12-04T11:11:50.976Z,135
2017-12-04T11:12:50.479Z,140
2017-12-04T11:13:50.763Z,135
2017-12-04T11:14:50.300Z,135
2017-12-04T11:15:50.513Z,120
2017-12-04T11:16:51.047Z,110
2017-12-04T11:17:50.794Z,95
2017-12-04T11:18:50.810Z,90
2017-12-04T11:19:50.818Z,90
2017-12-04T11:20:50.581Z,80
2017-12-04T11:21:51.099Z,80
2017-12-04T11:22:51.117Z,80
2017-12-04T11:23:50.621Z,70
2017-12-04T11:24:51.134Z,65
2017-12-04T11:25:50.900Z,65
2017-12-04T11:26:51.157Z,70
2017-12-04T11:27:50.412Z,75
2017-12-04T11:28:50.931Z,75
2017-12-04T11:29:50.942Z,75
2017-12-04T11:30:51.003Z,75
2017-12-04T11:31:50.969Z,75
2017-12-04T11:32:51.031Z,70
2017-12-04T11:33:51.193Z,70
2017-12-04T11:34:51.005Z,70
2017-12-04T11:35:51.025Z,75
2017-12-04T11:36:51.031Z,75
2017-12-04T11:37:51.292Z,75
2017-12-04T11:38:51.306Z,70
2017-12-04T11:39:51.323Z,70
2017-12-04T11:40:51.086Z,70
2017-12-04T11:41:51.089Z,70
2017-12-04T11:42:51.376Z,70
2017-12-04T11:43:51.118Z,70
2017-12-04T11:44:51.142Z,70
2017-12-04T11:45:50.887Z,70
2017-12-04T11:46:50.898Z,70
2017-12-04T11:47:51.174Z,75
2017-12-04T11:48:51.479Z,75
2017-12-04T11:49:51.552Z,80
2017-12-04T11:50:51.454Z,85
2017-12-04T11:51:51.466Z,85
2017-12-04T11:52:50.724Z,85
2017-12-04T11:53:51.239Z,90
2017-12-04T11:54:51.265Z,90
2017-12-04T11:55:51.257Z,85
2017-12-04T11:56:51.274Z,85
2017-12-04T11:57:51.346Z,85
2017-12-04T11:58:51.569Z,85
2017-12-04T11:59:51.310Z,90
2017-12-04T12:00:51.325Z,100
2017-12-04T12:01:51.079Z,100
2017-12-04T12:02:51.601Z,100
2017-12-04T12:03:51.166Z,105
2017-12-04T12:04:51.124Z,105
2017-12-04T12:05:51.642Z,105
2017-12-04T12:06:51.651Z,105
2017-12-04T12:07:50.902Z,105
2017-12-04T12:08:51.681Z,105
2017-12-04T12:09:51.701Z,110
2017-12-04T12:10:51.702Z,115
2017-12-04T12:11:51.463Z,115
2017-12-04T12:12:51.222Z,105
2017-12-04T12:13:51.501Z,95
2017-12-04T12:14:51.501Z,95
2017-12-04T12:15:51.513Z,90
2017-12-04T12:16:51.533Z,85
2017-12-04T12:17:51.788Z,75
2017-12-04T12:18:51.606Z,75
2017-12-04T12:19:51.312Z,75
2017-12-04T12:20:51.830Z,70
2017-12-04T12:21:51.339Z,70
2017-12-04T12:22:51.121Z,70
2017-12-04T12:23:51.369Z,75
2017-12-04T12:24:51.882Z,90
2017-12-04T12:25:51.649Z,90
2017-12-04T12:26:51.906Z,90
2017-12-04T12:27:51.932Z,90
2017-12-04T12:28:51.681Z,95
2017-12-04T12:29:51.947Z,100
2017-12-04T12:30:51.961Z,100
2017-12-04T12:31:51.720Z,100
2017-12-04T12:32:51.486Z,105
2017-12-04T12:33:51.503Z,100
2017-12-04T12:34:52.019Z,95
2017-12-04T12:35:52.029Z,90
2017-12-04T12:36:51.583Z,85
2017-12-04T12:37:51.345Z,85
2017-12-04T12:38:51.809Z,85
2017-12-04T12:39:51.831Z,85
2017-12-04T12:40:52.151Z,90
2017-12-04T12:41:51.592Z,90
2017-12-04T12:42:52.171Z,85
2017-12-04T12:43:52.127Z,85
2017-12-04T12:44:52.138Z,85
2017-12-04T12:45:52.153Z,85
2017-12-04T12:46:51.433Z,85
2017-12-04T12:47:51.930Z,85
2017-12-04T12:48:51.433Z,85
2017-12-04T12:49:51.954Z,85
2017-12-04T12:50:51.457Z,80
2017-12-04T12:51:52.237Z,85
2017-12-04T12:52:52.249Z,85
2017-12-04T12:53:52.002Z,85
2017-12-04T12:54:51.770Z,85
2017-12-04T12:55:52.075Z,85
2017-12-04T12:56:52.040Z,75
2017-12-04T12:57:52.302Z,65
2017-12-04T12:58:52.069Z,65
2017-12-04T12:59:51.825Z,65
2017-12-04T13:00:52.356Z,60
2017-12-04T13:01:52.112Z,65
2017-12-04T13:02:52.122Z,65
2017-12-04T13:03:51.881Z,65
2017-12-04T13:04:52.149Z,70
2017-12-04T13:05:51.673Z,70
2017-12-04T13:06:52.424Z,75
2017-12-04T13:07:51.931Z,75
2017-12-04T13:08:52.194Z,70
2017-12-04T13:09:52.213Z,55
2017-12-04T13:10:52.520Z,45
2017-12-04T13:11:52.228Z,40
2017-12-04T13:12:51.786Z,50
2017-12-04T13:13:52.258Z,55
2017-12-04T13:14:52.524Z,45
2017-12-04T13:15:52.555Z,40
2017-12-04T13:16:52.044Z,40
2017-12-04T13:17:52.310Z,45
2017-12-04T13:18:52.067Z,50
2017-12-04T13:19:52.329Z,50
2017-12-04T13:20:52.607Z,50
2017-12-04T13:21:52.610Z,45
2017-12-04T13:22:52.376Z,45
2017-12-04T13:23:52.382Z,45
2017-12-04T13:24:52.391Z,45
2017-12-04T13:25:52.407Z,45
2017-12-04T13:26:52.670Z,45
2017-12-04T13:27:52.734Z,40
2017-12-04T13:28:52.696Z,40
2017-12-04T13:29:52.466Z,45
2017-12-04T13:30:52.720Z,45
2017-12-04T13:31:52.766Z,45
2017-12-04T13:32:52.239Z,45
2017-12-04T13:33:52.505Z,45
2017-12-04T13:34:52.535Z,50
2017-12-04T13:35:52.785Z,50
2017-12-04T13:36:52.292Z,50
2017-12-04T13:37:52.048Z,55
2017-12-04T13:38:52.820Z,60
2017-12-04T13:39:52.077Z,55
2017-12-04T13:40:52.590Z,55
2017-12-04T13:41:52.096Z,60
2017-12-04T13:42:52.917Z,60
2017-12-04T13:43:52.634Z,55
2017-12-04T13:44:52.895Z,60
2017-12-04T13:45:52.958Z,65
2017-12-04T13:46:52.416Z,65
2017-12-04T13:47:52.936Z,65
2017-12-04T13:48:52.943Z,65
2017-12-04T13:49:52.450Z,65
2017-12-04T13:50:52.973Z,60
2017-12-04T13:51:52.481Z,60
2017-12-04T13:52:52.994Z,60
2017-12-04T13:53:53.037Z,60
2017-12-04T13:54:52.511Z,60
2017-12-04T13:55:53.031Z,55
2017-12-04T13:56:53.043Z,55
2017-12-04T13:57:53.106Z,55
2017-12-04T13:58:52.867Z,55
2017-12-04T13:59:52.824Z,50
2017-12-04T14:00:52.600Z,55
2017-12-04T14:01:53.103Z,60
2017-12-04T14:02:52.609Z,60
2017-12-04T14:03:53.131Z,65
2017-12-04T14:04:52.381Z,60
2017-12-04T14:05:52.913Z,65
2017-12-04T14:06:52.927Z,60
2017-12-04T14:07:52.924Z,55
2017-12-04T14:08:52.946Z,50
2017-12-04T14:09:53.205Z,50
2017-12-04T14:10:52.962Z,50
2017-12-04T14:11:53.226Z,45
2017-12-04T14:12:52.531Z,40
2017-12-04T14:13:52.802Z,45
2017-12-04T14:14:53.009Z,45
2017-12-04T14:15:53.045Z,35
2017-12-04T14:16:53.287Z,30
2017-12-04T14:17:52.540Z,30
2017-12-04T14:18:52.551Z,35
2017-12-04T14:19:53.326Z,35
2017-12-04T14:20:53.107Z,30
2017-12-04T14:21:53.369Z,30
2017-12-04T14:22:53.363Z,30
2017-12-04T14:39:46.240Z,10
2017-12-04T14:40:46.245Z,15